Time;durP1;ratioP1;P1;durP2;ratioP2;P2;SDS_P1;SDS_P2;PMS_P1;PMS_P2;Temp;Humidity;BMP_temperature;BMP_pressure;BME280_temperature;BME280_humidity;BME280_pressure;Samples;Min_cycle;Max_cycle;Signal;HPM_P1;HPM_P2
2023/06/06 00:02:00;;;;;;;13.20;9.30;;;;;;;17.62;63.21;100553.23;130388;1257;114727;-67
2023/06/06 00:05:03;;;;;;;15.20;9.10;;;;;;;17.60;63.19;100557.17;130509;1276;114750;-68
2023/06/06 00:08:07;;;;;;;11.80;8.70;;;;;;;17.60;63.58;100558.05;129994;1276;115247;-66
2023/06/06 00:11:09;;;;;;;;;;;;;;;17.61;64.16;100558.14;130108;1259;114860;-66
2023/06/06 00:14:18;;;;;;;14.20;9.10;;;;;;;17.61;64.35;100561.27;130336;1259;115150;-66
2023/06/06 00:17:22;;;;;;;11.90;9.40;;;;;;;17.57;64.44;100568.73;129919;1261;116463;-66
2023/06/06 00:20:24;;;;;;;13.50;10.00;;;;;;;17.55;64.84;100576.64;129998;1254;127602;-66
2023/06/06 00:23:26;;;;;;;12.70;9.50;;;;;;;17.53;65.17;100575.70;130335;1259;114831;-66
2023/06/06 00:26:29;;;;;;;12.30;9.80;;;;;;;17.52;65.52;100573.43;130461;1256;114721;-67
2023/06/06 00:29:31;;;;;;;10.90;9.00;;;;;;;17.51;65.75;100570.79;130194;1260;115581;-66
2023/06/06 00:32:33;;;;;;;12.40;8.50;;;;;;;17.47;65.74;100571.85;130341;1260;114837;-66
2023/06/06 00:35:35;;;;;;;10.70;8.50;;;;;;;17.43;65.95;100579.52;130414;1259;114776;-66
2023/06/06 00:38:37;;;;;;;11.30;8.60;;;;;;;17.41;66.16;100578.77;129880;1263;114808;-66
2023/06/06 00:41:39;;;;;;;11.70;9.10;;;;;;;17.40;66.47;100580.65;130371;1257;114817;-67
2023/06/06 00:44:42;;;;;;;11.60;9.30;;;;;;;17.39;66.66;100580.52;130358;1259;114941;-67
2023/06/06 00:47:45;;;;;;;10.80;9.00;;;;;;;17.38;67.04;100581.85;130201;1260;114717;-67
2023/06/06 00:50:47;;;;;;;10.20;9.00;;;;;;;17.36;67.00;100579.49;130452;1256;114614;-67
2023/06/06 00:53:50;;;;;;;10.40;9.10;;;;;;;17.34;67.22;100574.08;130577;1257;114823;-67
2023/06/06 00:56:53;;;;;;;13.40;9.60;;;;;;;17.33;67.53;100571.98;130223;1257;114830;-66
2023/06/06 00:59:56;;;;;;;11.10;9.30;;;;;;;17.30;67.76;100568.73;130248;1254;115360;-67
2023/06/06 01:03:03;;;;;;;12.10;9.20;;;;;;;17.27;67.99;100562.49;130411;1252;115112;-67
2023/06/06 01:06:05;;;;;;;12.70;10.00;;;;;;;17.24;68.09;100556.00;130285;1261;114900;-67
2023/06/06 01:09:12;;;;;;;13.80;10.50;;;;;;;17.22;68.41;100551.09;130407;1256;115211;-67
2023/06/06 01:12:32;;;;;;;14.40;10.40;;;;;;;17.21;68.79;100548.65;130056;1259;114847;-67
2023/06/06 01:15:40;;;;;;;11.30;10.00;;;;;;;17.18;68.96;100543.45;130345;1266;128877;-68
2023/06/06 01:18:45;;;;;;;13.10;10.90;;;;;;;17.15;69.01;100544.73;130339;1266;115169;-67
2023/06/06 01:21:48;;;;;;;16.60;11.00;;;;;;;17.13;69.13;100543.30;130277;1260;114888;-67
2023/06/06 01:24:52;;;;;;;15.20;10.80;;;;;;;17.10;69.35;100542.02;130438;1256;114779;-67
2023/06/06 01:27:55;;;;;;;12.40;10.90;;;;;;;17.09;69.56;100542.14;130182;1275;117684;-67
2023/06/06 01:30:57;;;;;;;20.00;10.10;;;;;;;17.08;69.69;100541.15;130425;1264;115614;-68
2023/06/06 01:34:07;;;;;;;13.20;10.10;;;;;;;17.05;69.64;100544.04;130285;1258;115350;-67
2023/06/06 01:37:11;;;;;;;12.60;10.30;;;;;;;17.03;69.66;100542.58;130498;1275;114907;-68
2023/06/06 01:40:16;;;;;;;15.10;10.80;;;;;;;17.00;69.89;100544.36;130422;1275;114761;-68
2023/06/06 01:43:21;;;;;;;12.00;10.40;;;;;;;16.98;70.02;100545.09;130173;1254;114859;-66
2023/06/06 01:46:26;;;;;;;10.10;9.10;;;;;;;16.94;69.78;100552.58;130170;1260;127626;-67
2023/06/06 01:49:28;;;;;;;12.80;10.10;;;;;;;16.91;69.82;100556.58;130158;1262;115238;-67
2023/06/06 01:52:36;;;;;;;14.50;10.60;;;;;;;16.89;70.19;100554.52;130423;1258;114747;-67
2023/06/06 01:55:39;;;;;;;15.20;11.10;;;;;;;16.88;70.30;100550.67;130467;1253;114804;-67
2023/06/06 01:58:41;;;;;;;13.00;10.40;;;;;;;16.86;70.45;100553.48;130380;1254;114698;-67
2023/06/06 02:01:43;;;;;;;12.80;10.40;;;;;;;16.83;70.67;100552.77;130433;1264;114863;-67
2023/06/06 02:04:47;;;;;;;21.70;10.40;;;;;;;16.82;70.93;100554.65;130538;1259;115291;-67
2023/06/06 02:07:51;;;;;;;11.60;10.20;;;;;;;16.80;70.90;100553.04;130254;1267;114878;-66
2023/06/06 02:10:54;;;;;;;13.90;10.80;;;;;;;16.77;71.00;100554.14;130326;1257;114820;-67
2023/06/06 02:13:57;;;;;;;13.70;10.90;;;;;;;16.76;71.15;100555.66;130394;1264;115381;-67
2023/06/06 02:16:59;;;;;;;16.20;10.30;;;;;;;16.75;71.27;100553.41;130583;1275;114706;-67
2023/06/06 02:20:04;;;;;;;12.70;10.50;;;;;;;16.72;71.31;100553.20;130607;1257;114826;-67
2023/06/06 02:23:06;;;;;;;12.50;10.40;;;;;;;16.71;71.51;100551.50;130419;1256;263950;-67
2023/06/06 02:26:09;;;;;;;14.30;10.60;;;;;;;16.69;71.59;100548.92;130568;1257;114677;-67
2023/06/06 02:29:11;;;;;;;14.60;11.10;;;;;;;16.68;71.79;100547.19;130569;1267;114679;-67
2023/06/06 02:32:13;;;;;;;15.00;11.90;;;;;;;16.67;71.84;100550.35;130734;1266;114801;-67
2023/06/06 02:35:18;;;;;;;14.40;11.60;;;;;;;16.65;71.80;100547.96;130229;1260;114880;-67
2023/06/06 02:38:22;;;;;;;15.80;12.00;;;;;;;16.63;72.06;100550.95;130295;1275;129582;-67
2023/06/06 02:41:26;;;;;;;13.30;11.90;;;;;;;16.62;72.14;100547.09;130511;1256;114775;-68
2023/06/06 02:44:28;;;;;;;12.90;11.50;;;;;;;16.60;72.24;100547.42;130365;1267;114685;-68
2023/06/06 02:47:30;;;;;;;19.90;12.00;;;;;;;16.58;72.39;100547.02;130407;1257;114697;-67
2023/06/06 02:50:33;;;;;;;16.60;12.50;;;;;;;16.56;72.23;100542.45;130388;1257;114757;-68
2023/06/06 02:53:35;;;;;;;15.80;12.50;;;;;;;16.53;72.41;100543.92;130314;1266;114950;-68
2023/06/06 02:56:38;;;;;;;12.70;11.30;;;;;;;16.51;72.32;100541.55;129995;1254;127986;-68
2023/06/06 02:59:40;;;;;;;14.70;11.00;;;;;;;16.48;72.32;100542.07;130249;1266;114723;-68
2023/06/06 03:02:43;;;;;;;13.70;11.70;;;;;;;16.47;72.13;100542.54;130156;1268;114709;-67
2023/06/06 03:05:51;;;;;;;17.20;11.80;;;;;;;16.46;72.38;100542.09;130262;1267;116009;-68
2023/06/06 03:08:55;;;;;;;16.90;11.90;;;;;;;16.45;72.57;100538.71;130292;1258;114718;-68
2023/06/06 03:11:58;;;;;;;13.70;11.70;;;;;;;16.44;72.65;100537.88;130251;1262;114793;-68
2023/06/06 03:15:00;;;;;;;20.10;12.80;;;;;;;16.44;72.88;100535.73;130312;1257;114740;-69
2023/06/06 03:18:02;;;;;;;14.40;12.00;;;;;;;16.44;73.22;100532.64;130547;1258;114731;-68
2023/06/06 03:21:05;;;;;;;15.90;11.80;;;;;;;16.45;73.40;100527.39;130273;1271;114884;-68
2023/06/06 03:24:08;;;;;;;13.80;11.60;;;;;;;16.45;73.44;100527.55;130753;1256;115367;-69
2023/06/06 03:27:11;;;;;;;14.80;11.80;;;;;;;16.44;73.45;100517.50;130523;1275;114782;-69
2023/06/06 03:30:14;;;;;;;15.30;12.10;;;;;;;16.44;73.54;100515.91;130572;1257;114701;-68
2023/06/06 03:33:16;;;;;;;15.20;11.90;;;;;;;16.42;73.66;100512.79;130460;1257;114711;-68
2023/06/06 03:36:19;;;;;;;13.50;11.50;;;;;;;16.39;73.71;100506.27;130508;1257;114776;-68
2023/06/06 03:39:21;;;;;;;13.00;11.70;;;;;;;16.38;73.75;100504.06;130320;1254;115166;-68
2023/06/06 03:42:23;;;;;;;16.00;11.50;;;;;;;16.36;73.81;100498.79;130576;1264;115249;-67
2023/06/06 03:45:27;;;;;;;14.30;11.20;;;;;;;16.35;73.92;100501.17;130459;1266;114716;-67
2023/06/06 03:48:29;;;;;;;12.90;10.10;;;;;;;16.35;74.06;100498.81;130310;1260;114788;-68
2023/06/06 03:51:31;;;;;;;14.80;10.50;;;;;;;16.35;74.18;100500.30;130349;1275;114756;-68
2023/06/06 03:54:36;;;;;;;12.30;9.40;;;;;;;16.35;74.08;100502.09;130537;1257;114699;-69
2023/06/06 03:57:39;;;;;;;9.60;8.60;;;;;;;16.36;74.30;100497.02;130139;1268;128106;-68
2023/06/06 04:00:44;;;;;;;9.70;8.70;;;;;;;16.37;74.44;100496.20;130357;1257;114839;-69
2023/06/06 04:03:46;;;;;;;;;;;;;;;16.39;74.57;100498.20;130094;1252;114712;-68
2023/06/06 04:06:48;;;;;;;10.60;9.00;;;;;;;16.40;74.63;100498.13;130402;1275;114698;-68
2023/06/06 04:09:50;;;;;;;11.80;9.80;;;;;;;16.42;74.63;100501.10;130432;1257;114720;-69
2023/06/06 04:12:52;;;;;;;10.70;9.30;;;;;;;16.44;74.63;100508.32;129977;1275;116390;-68
2023/06/06 04:15:54;;;;;;;12.40;9.80;;;;;;;16.45;74.47;100512.25;130342;1254;114705;-68
2023/06/06 04:18:57;;;;;;;11.50;9.40;;;;;;;16.47;74.46;100513.55;130396;1254;115272;-68
2023/06/06 04:21:59;;;;;;;12.40;8.50;;;;;;;16.47;74.43;100511.17;130290;1257;115266;-68
2023/06/06 04:25:02;;;;;;;13.30;9.30;;;;;;;16.49;74.47;100512.27;130298;1266;114713;-67
2023/06/06 04:28:05;;;;;;;11.10;9.70;;;;;;;16.53;74.70;100512.02;130258;1267;114823;-67
2023/06/06 04:31:07;;;;;;;13.00;10.30;;;;;;;16.56;74.84;100508.55;130371;1253;115208;-67
2023/06/06 04:34:10;;;;;;;10.70;8.90;;;;;;;16.59;74.92;100517.15;130585;1257;114730;-67
2023/06/06 04:37:14;;;;;;;10.90;9.40;;;;;;;16.60;74.90;100522.55;130209;1260;129058;-65
2023/06/06 04:40:21;;;;;;;12.60;8.70;;;;;;;16.58;74.93;100521.43;130212;1261;114802;-67
2023/06/06 04:43:25;;;;;;;10.70;9.70;;;;;;;16.56;74.86;100528.02;130071;1254;114920;-68
2023/06/06 04:46:28;;;;;;;11.20;9.80;;;;;;;16.53;75.24;100529.45;130251;1257;114820;-68
2023/06/06 04:49:38;;;;;;;11.50;9.10;;;;;;;16.53;75.25;100535.83;130311;1257;114759;-68
2023/06/06 04:52:40;;;;;;;11.60;9.60;;;;;;;16.52;75.24;100545.98;130288;1254;127814;-67
2023/06/06 04:55:43;;;;;;;12.00;9.40;;;;;;;16.54;75.44;100561.86;130277;1258;114820;-67
2023/06/06 04:58:46;;;;;;;12.40;11.00;;;;;;;16.57;75.57;100564.02;130405;1257;114798;-68
2023/06/06 05:01:49;;;;;;;15.80;11.20;;;;;;;16.59;75.81;100569.10;130457;1257;114713;-68
2023/06/06 05:04:52;;;;;;;13.20;11.50;;;;;;;16.60;75.72;100575.02;130591;1254;115240;-67
2023/06/06 05:07:54;;;;;;;15.10;12.20;;;;;;;16.63;75.83;100578.61;129967;1254;114793;-68
2023/06/06 05:10:58;;;;;;;24.60;17.90;;;;;;;16.67;75.66;100577.20;130514;1257;114843;-67
2023/06/06 05:14:00;;;;;;;24.60;18.10;;;;;;;16.72;75.84;100578.45;130453;1275;114817;-68
2023/06/06 05:17:03;;;;;;;16.90;13.90;;;;;;;16.77;75.64;100578.33;130663;1257;114704;-67
2023/06/06 05:20:10;;;;;;;22.40;14.10;;;;;;;16.81;75.87;100580.33;130356;1256;116330;-68
2023/06/06 05:23:12;;;;;;;20.80;13.60;;;;;;;16.87;75.76;100583.39;129942;1264;114960;-69
2023/06/06 05:26:14;;;;;;;19.90;14.10;;;;;;;16.88;75.81;100582.58;130251;1254;115119;-68
2023/06/06 05:29:16;;;;;;;24.60;14.50;;;;;;;16.90;75.72;100577.56;130117;1255;114801;-68
2023/06/06 05:32:18;;;;;;;21.20;14.10;;;;;;;16.94;75.76;100580.17;130084;1260;129656;-68
2023/06/06 05:35:20;;;;;;;19.70;14.60;;;;;;;16.95;75.60;100574.15;130211;1256;114782;-68
2023/06/06 05:38:23;;;;;;;15.70;14.10;;;;;;;16.98;75.64;100572.30;130148;1254;114814;-68
2023/06/06 05:41:26;;;;;;;18.20;13.60;;;;;;;17.05;75.57;100568.91;130285;1260;114754;-68
2023/06/06 05:44:28;;;;;;;16.90;13.90;;;;;;;17.17;75.96;100572.42;129926;1278;114881;-67
2023/06/06 05:47:30;;;;;;;18.90;15.10;;;;;;;17.32;76.13;100570.60;130134;1260;115298;-67
2023/06/06 05:50:33;;;;;;;14.70;13.10;;;;;;;17.49;76.04;100572.74;129918;1261;114754;-68
2023/06/06 05:53:35;;;;;;;17.00;13.20;;;;;;;17.66;75.66;100574.98;130254;1270;128348;-68
2023/06/06 05:56:37;;;;;;;15.30;13.50;;;;;;;17.83;75.62;100573.53;130161;1259;115120;-67
2023/06/06 05:59:41;;;;;;;18.40;13.20;;;;;;;17.98;75.18;100568.20;130291;1267;114728;-68
2023/06/06 06:02:43;;;;;;;15.70;12.50;;;;;;;18.08;74.52;100567.14;130323;1277;114716;-68
2023/06/06 06:05:45;;;;;;;16.30;12.90;;;;;;;18.21;74.75;100566.33;130329;1254;114954;-67
2023/06/06 06:08:49;;;;;;;12.90;11.50;;;;;;;18.33;74.33;100564.65;130251;1257;114696;-66
2023/06/06 06:11:52;;;;;;;16.50;10.40;;;;;;;18.47;74.01;100559.23;129899;1254;114805;-65
2023/06/06 06:14:54;;;;;;;14.90;10.10;;;;;;;18.67;73.42;100553.89;129866;1257;114779;-66
2023/06/06 06:17:56;;;;;;;12.00;9.50;;;;;;;18.95;72.64;100555.07;130219;1257;114721;-66
2023/06/06 06:20:59;;;;;;;12.40;9.60;;;;;;;19.21;71.51;100550.29;130219;1267;114784;-65
2023/06/06 06:24:01;;;;;;;12.50;9.70;;;;;;;19.42;71.42;100544.73;130138;1278;114704;-66
2023/06/06 06:27:03;;;;;;;14.20;10.00;;;;;;;19.61;70.63;100544.98;130183;1267;114808;-66
2023/06/06 06:30:07;;;;;;;13.20;9.90;;;;;;;19.78;70.33;100538.52;130338;1259;114847;-66
2023/06/06 06:33:11;;;;;;;11.70;8.90;;;;;;;19.97;69.77;100534.56;129994;1272;114863;-66
2023/06/06 06:36:13;;;;;;;10.10;8.50;;;;;;;20.09;69.38;100539.32;130481;1276;127597;-65
2023/06/06 06:39:18;;;;;;;11.90;8.50;;;;;;;20.27;68.60;100541.77;130317;1257;115239;-66
2023/06/06 06:42:20;;;;;;;15.50;8.90;;;;;;;20.32;67.29;100546.43;130149;1269;114784;-65
2023/06/06 06:45:24;;;;;;;10.00;7.90;;;;;;;20.39;67.53;100546.01;130431;1255;114719;-65
2023/06/06 06:48:26;;;;;;;15.00;9.10;;;;;;;20.48;67.20;100548.29;130265;1254;114759;-65
2023/06/06 06:51:30;;;;;;;12.40;8.80;;;;;;;20.60;66.91;100539.30;130290;1254;114711;-64
2023/06/06 06:54:35;;;;;;;8.60;7.60;;;;;;;20.72;66.93;100542.61;129894;1263;127886;-64
2023/06/06 06:57:42;;;;;;;12.80;7.50;;;;;;;20.91;66.33;100543.51;130336;1254;115208;-66
2023/06/06 07:00:44;;;;;;;8.30;7.00;;;;;;;21.02;64.89;100540.90;129948;1260;114917;-65
2023/06/06 07:03:48;;;;;;;11.40;7.20;;;;;;;21.04;64.23;100544.30;130248;1254;114721;-65
2023/06/06 07:06:50;;;;;;;11.40;7.40;;;;;;;21.15;64.23;100540.29;130448;1254;114696;-65
2023/06/06 07:09:53;;;;;;;8.30;7.10;;;;;;;21.41;64.27;100541.57;130208;1256;114712;-65
2023/06/06 07:12:56;;;;;;;9.10;6.60;;;;;;;21.70;63.80;100539.88;130240;1267;114974;-65
2023/06/06 07:15:58;;;;;;;10.60;6.60;;;;;;;21.91;63.30;100534.27;130313;1276;114652;-66
2023/06/06 07:19:00;;;;;;;10.20;6.20;;;;;;;22.03;62.09;100536.05;130237;1254;114702;-65
2023/06/06 07:22:05;;;;;;;10.30;6.40;;;;;;;22.02;61.19;100532.90;130352;1257;114718;-65
2023/06/06 07:25:08;;;;;;;11.50;6.70;;;;;;;22.14;61.33;100528.59;130467;1257;114705;-65
2023/06/06 07:28:13;;;;;;;10.70;6.10;;;;;;;22.51;61.52;100527.70;130450;1255;115179;-66
2023/06/06 07:31:15;;;;;;;7.70;5.70;;;;;;;23.05;59.76;100523.59;130453;1257;114700;-66
2023/06/06 07:34:17;;;;;;;6.30;5.10;;;;;;;23.46;59.63;100517.90;130393;1266;114693;-66
2023/06/06 07:37:19;;;;;;;6.40;5.20;;;;;;;23.99;58.89;100513.66;130440;1275;114817;-65
2023/06/06 07:40:21;;;;;;;11.00;5.00;;;;;;;24.59;58.05;100513.65;130369;1254;114718;-66
2023/06/06 07:43:23;;;;;;;7.10;5.10;;;;;;;24.83;56.23;100512.39;130350;1257;115237;-65
2023/06/06 07:46:25;;;;;;;8.70;5.20;;;;;;;25.00;55.91;100507.71;130443;1258;114632;-66
2023/06/06 07:49:27;;;;;;;6.50;4.90;;;;;;;25.04;53.81;100507.23;130026;1257;119389;-65
2023/06/06 07:52:32;;;;;;;6.50;4.40;;;;;;;24.93;51.86;100505.88;130358;1257;114744;-65
2023/06/06 07:55:35;;;;;;;5.70;4.50;;;;;;;24.71;51.11;100506.59;130058;1257;114705;-64
2023/06/06 07:58:53;;;;;;;9.20;5.20;;;;;;;24.53;51.72;100501.16;130397;1254;114692;-66
2023/06/06 08:01:55;;;;;;;6.30;4.70;;;;;;;24.48;51.53;100502.90;130136;1275;115234;-66
2023/06/06 08:04:59;;;;;;;8.50;4.50;;;;;;;24.55;51.73;100501.80;130441;1275;114707;-66
2023/06/06 08:08:01;;;;;;;6.30;4.20;;;;;;;24.69;51.44;100498.55;130510;1275;115063;-65
2023/06/06 08:11:04;;;;;;;5.30;4.40;;;;;;;24.80;50.44;100500.25;130526;1275;114689;-64
2023/06/06 08:14:06;;;;;;;5.90;4.70;;;;;;;24.86;49.50;100501.84;130597;1271;114726;-66
2023/06/06 08:17:09;;;;;;;8.30;5.00;;;;;;;25.00;49.53;100502.61;130619;1257;114772;-67
2023/06/06 08:20:11;;;;;;;8.00;4.80;;;;;;;25.19;49.54;100501.65;130047;1260;114923;-66
2023/06/06 08:23:13;;;;;;;6.80;4.70;;;;;;;25.35;49.43;100501.96;130412;1257;114692;-66
2023/06/06 08:26:15;;;;;;;7.90;5.40;;;;;;;25.40;48.66;100499.70;130365;1254;115616;-66
2023/06/06 08:29:17;;;;;;;7.30;4.40;;;;;;;25.56;49.14;100502.05;130368;1254;115172;-67
2023/06/06 08:32:19;;;;;;;6.50;5.00;;;;;;;25.78;48.32;100504.54;130486;1258;115199;-69
2023/06/06 08:35:22;;;;;;;8.10;4.80;;;;;;;25.95;47.95;100502.48;130507;1276;114693;-69
2023/06/06 08:38:24;;;;;;;6.00;4.20;;;;;;;26.11;47.36;100499.77;130069;1254;114958;-68
2023/06/06 08:41:26;;;;;;;5.70;4.20;;;;;;;26.28;46.51;100500.07;130433;1256;114766;-66
2023/06/06 08:44:29;;;;;;;7.70;3.90;;;;;;;26.30;45.71;100496.64;130268;1257;114712;-67
2023/06/06 08:47:31;;;;;;;5.50;4.30;;;;;;;26.29;45.50;100494.14;130285;1260;119885;-66
2023/06/06 08:50:34;;;;;;;9.40;5.70;;;;;;;26.38;45.72;100485.94;130291;1257;114789;-68
2023/06/06 08:53:36;;;;;;;7.10;4.50;;;;;;;26.53;45.74;100487.55;130288;1255;114751;-68
2023/06/06 08:56:42;;;;;;;8.90;4.60;;;;;;;26.61;44.97;100487.94;130495;1272;115214;-68
2023/06/06 08:59:44;;;;;;;8.20;5.50;;;;;;;26.54;44.84;100485.62;130125;1262;114743;-68
2023/06/06 09:02:51;;;;;;;9.40;5.40;;;;;;;26.52;45.12;100482.06;130498;1254;115169;-66
2023/06/06 09:05:54;;;;;;;7.70;5.30;;;;;;;26.57;44.83;100481.42;130240;1253;120172;-67
2023/06/06 09:08:56;;;;;;;7.60;5.00;;;;;;;26.57;44.56;100482.55;130331;1257;114804;-65
2023/06/06 09:11:59;;;;;;;5.20;4.60;;;;;;;26.54;44.41;100483.63;130356;1259;114832;-67
2023/06/06 09:15:01;;;;;;;9.40;4.60;;;;;;;26.44;44.21;100481.45;130497;1256;114725;-66
2023/06/06 09:18:03;;;;;;;7.00;5.40;;;;;;;26.35;44.17;100486.52;130266;1258;114869;-68
2023/06/06 09:21:05;;;;;;;8.90;5.10;;;;;;;26.31;43.99;100490.27;130293;1275;114705;-67
2023/06/06 09:24:07;;;;;;;9.00;5.20;;;;;;;26.23;44.22;100497.59;130527;1253;114704;-66
2023/06/06 09:27:29;;;;;;;8.10;5.20;;;;;;;26.25;44.14;100493.86;130226;1257;120028;-67
2023/06/06 09:30:32;;;;;;;5.50;4.40;;;;;;;26.20;43.14;100490.16;129972;1254;115281;-67
2023/06/06 09:33:39;;;;;;;6.60;4.90;;;;;;;26.14;42.76;100490.19;130552;1253;114773;-67
2023/06/06 09:36:44;;;;;;;6.90;4.90;;;;;;;26.04;42.47;100486.91;130105;1261;114983;-67
2023/06/06 09:39:48;;;;;;;;;;;;;;;26.02;42.78;100484.33;130429;1272;114695;-66
2023/06/06 09:42:50;;;;;;;10.90;4.50;;;;;;;25.91;42.72;100481.52;130241;1275;118892;-67
2023/06/06 09:45:57;;;;;;;5.70;4.50;;;;;;;25.90;42.86;100480.55;130089;1275;114900;-66
2023/06/06 09:49:00;;;;;;;6.40;4.30;;;;;;;25.85;42.28;100479.56;130160;1261;114805;-66
2023/06/06 09:52:03;;;;;;;5.10;4.20;;;;;;;25.79;42.38;100478.48;130419;1257;114951;-67
2023/06/06 09:55:10;;;;;;;4.60;4.00;;;;;;;25.76;41.82;100475.65;130424;1272;115157;-67
2023/06/06 09:58:15;;;;;;;4.30;3.70;;;;;;;25.73;41.15;100477.99;130156;1256;120444;-67
2023/06/06 10:01:17;;;;;;;7.90;4.10;;;;;;;25.66;41.12;100472.44;130081;1260;115266;-67
2023/06/06 10:04:19;;;;;;;6.80;3.30;;;;;;;25.67;41.35;100469.76;130169;1260;114763;-67
2023/06/06 10:07:22;;;;;;;5.70;4.40;;;;;;;25.65;41.23;100467.39;130304;1257;114794;-67
2023/06/06 10:10:24;;;;;;;7.00;4.20;;;;;;;25.66;41.23;100463.65;130076;1254;114863;-67
2023/06/06 10:13:28;;;;;;;4.60;3.80;;;;;;;25.70;41.06;100461.12;130399;1254;115152;-68
2023/06/06 10:16:31;;;;;;;7.20;3.70;;;;;;;25.74;41.11;100459.23;130231;1257;114824;-68
2023/06/06 10:19:34;;;;;;;6.00;4.20;;;;;;;25.79;41.03;100452.26;130408;1257;114805;-67
2023/06/06 10:22:36;;;;;;;5.20;4.00;;;;;;;25.82;40.59;100448.99;130531;1256;114705;-67
2023/06/06 10:25:40;;;;;;;5.50;4.10;;;;;;;25.89;40.65;100445.30;130117;1254;114718;-67
2023/06/06 10:28:52;;;;;;;5.10;3.60;;;;;;;25.97;40.44;100444.38;131330;1257;114658;-66
2023/06/06 10:32:03;;;;;;;7.50;4.10;;;;;;;26.06;40.85;100443.58;131191;1260;117899;-66
2023/06/06 10:35:07;;;;;;;4.40;3.50;;;;;;;26.20;40.72;100437.15;130321;1259;114959;-67
2023/06/06 10:38:09;;;;;;;7.40;4.00;;;;;;;26.40;40.74;100435.42;130403;1257;115314;-68
2023/06/06 10:41:18;;;;;;;5.30;3.80;;;;;;;26.57;40.19;100432.47;130423;1259;114699;-66
2023/06/06 10:44:24;;;;;;;5.60;3.90;;;;;;;26.71;40.07;100422.69;130275;1257;115399;-68
2023/06/06 10:47:40;;;;;;;6.60;4.20;;;;;;;26.84;40.06;100420.63;130306;1277;120095;-67
2023/06/06 10:50:53;;;;;;;6.50;3.70;;;;;;;26.94;39.28;100420.45;130345;1269;115409;-67
2023/06/06 10:54:18;;;;;;;6.40;3.60;;;;;;;27.07;39.32;100418.30;130341;1277;114788;-67
2023/06/06 10:57:20;;;;;;;4.80;3.80;;;;;;;27.24;39.07;100419.31;130223;1257;114655;-67
2023/06/06 11:00:25;;;;;;;6.30;3.50;;;;;;;27.33;38.65;100416.77;130332;1257;116324;-67
2023/06/06 11:03:35;;;;;;;3.80;2.60;;;;;;;27.38;37.36;100414.88;130217;1260;119196;-68
2023/06/06 11:06:38;;;;;;;4.00;3.00;;;;;;;27.38;35.22;100410.13;130286;1259;115127;-67
2023/06/06 11:09:41;;;;;;;4.00;3.20;;;;;;;27.34;34.68;100405.63;130028;1261;114935;-68
2023/06/06 11:12:43;;;;;;;7.10;3.30;;;;;;;27.34;34.12;100406.46;130184;1257;114709;-68
2023/06/06 11:15:55;;;;;;;5.10;3.30;;;;;;;27.30;33.06;100403.90;130096;1256;115129;-68
2023/06/06 11:19:02;;;;;;;4.20;2.50;;;;;;;27.33;33.24;100398.06;129969;1262;118950;-67
2023/06/06 11:22:05;;;;;;;11.50;3.10;;;;;;;27.39;33.02;100391.14;129952;1257;115138;-66
2023/06/06 11:25:07;;;;;;;4.70;2.70;;;;;;;27.50;33.08;100387.02;130190;1259;114726;-68
2023/06/06 11:28:09;;;;;;;6.60;3.10;;;;;;;27.59;32.17;100387.80;130222;1257;114740;-66
2023/06/06 11:31:12;;;;;;;3.90;3.30;;;;;;;27.63;31.56;100385.15;130424;1256;114836;-67
2023/06/06 11:34:15;;;;;;;6.60;2.70;;;;;;;27.69;31.93;100382.20;130429;1276;115330;-67
2023/06/06 11:37:17;;;;;;;6.00;3.00;;;;;;;27.67;30.83;100378.03;130209;1276;114810;-67
2023/06/06 11:40:19;;;;;;;6.50;2.90;;;;;;;27.59;31.35;100375.30;130330;1256;114728;-67
2023/06/06 11:43:22;;;;;;;6.30;2.70;;;;;;;27.67;31.49;100376.16;130386;1259;114908;-68
2023/06/06 11:46:24;;;;;;;3.80;2.70;;;;;;;27.75;31.51;100378.17;130445;1256;114728;-67
2023/06/06 11:49:26;;;;;;;4.30;3.00;;;;;;;27.83;31.17;100376.28;130554;1269;114730;-67
2023/06/06 11:52:28;;;;;;;4.30;3.20;;;;;;;27.88;30.60;100376.02;130593;1254;115189;-67
2023/06/06 11:55:37;;;;;;;6.60;3.30;;;;;;;27.78;30.34;100373.02;130259;1261;114804;-68
2023/06/06 11:58:41;;;;;;;4.30;3.20;;;;;;;27.74;30.46;100372.95;130432;1257;119915;-68
2023/06/06 12:01:49;;;;;;;3.40;2.90;;;;;;;27.76;30.49;100366.34;130398;1257;114724;-65
2023/06/06 12:04:51;;;;;;;7.30;3.20;;;;;;;27.79;30.42;100365.23;130502;1266;114699;-66
2023/06/06 12:07:57;;;;;;;7.30;3.00;;;;;;;27.78;30.55;100362.19;130406;1257;115122;-67
2023/06/06 12:11:26;;;;;;;4.40;3.00;;;;;;;27.81;30.13;100361.80;130184;1262;114913;-66
2023/06/06 12:14:30;;;;;;;7.20;3.10;;;;;;;27.77;29.59;100363.02;130456;1257;120595;-66
2023/06/06 12:17:32;;;;;;;4.30;3.10;;;;;;;27.73;30.23;100361.13;129968;1255;114745;-66
2023/06/06 12:20:34;;;;;;;3.60;3.00;;;;;;;27.80;30.28;100363.48;130295;1276;115302;-66
2023/06/06 12:23:36;;;;;;;6.90;2.90;;;;;;;27.84;29.80;100358.16;130391;1276;114759;-66
2023/06/06 12:26:51;;;;;;;5.80;3.40;;;;;;;27.91;30.05;100354.89;130165;1262;115077;-66
2023/06/06 12:29:55;;;;;;;4.90;2.90;;;;;;;28.07;30.25;100351.17;130261;1256;114911;-66
2023/06/06 12:32:58;;;;;;;;;;;;;;;28.19;29.46;100349.67;130289;1260;119189;-66
2023/06/06 12:36:21;;;;;;;5.40;3.90;;;;;;;28.16;29.52;100346.61;130279;1257;114806;-66
2023/06/06 12:39:23;;;;;;;5.50;3.30;;;;;;;28.20;29.85;100344.08;130165;1276;114818;-66
2023/06/06 12:42:25;;;;;;;5.50;3.30;;;;;;;28.30;29.82;100346.16;130555;1272;114708;-66
2023/06/06 12:45:28;;;;;;;4.50;3.10;;;;;;;28.33;29.60;100347.26;130485;1254;114828;-66
2023/06/06 12:48:30;;;;;;;3.80;2.90;;;;;;;28.28;29.36;100347.64;130509;1256;114734;-66
2023/06/06 12:51:34;;;;;;;6.10;3.30;;;;;;;28.21;29.16;100342.52;130190;1260;118991;-66
2023/06/06 12:54:40;;;;;;;9.50;3.40;;;;;;;28.16;29.22;100339.63;130538;1275;115357;-66
2023/06/06 12:57:42;;;;;;;3.40;2.70;;;;;;;28.17;29.20;100337.39;130212;1258;115334;-66
2023/06/06 13:00:44;;;;;;;8.60;3.20;;;;;;;28.22;29.53;100338.52;130378;1257;115389;-66
2023/06/06 13:03:46;;;;;;;11.50;3.40;;;;;;;28.25;29.20;100340.92;130236;1257;114789;-67
2023/06/06 13:06:49;;;;;;;3.30;3.00;;;;;;;28.20;29.32;100339.42;130417;1257;114715;-67
2023/06/06 13:09:51;;;;;;;7.80;3.40;;;;;;;28.15;29.34;100337.84;130049;1272;118890;-66
2023/06/06 13:12:53;;;;;;;4.10;3.00;;;;;;;28.19;29.25;100331.35;130236;1275;116401;-66
2023/06/06 13:15:56;;;;;;;6.90;4.50;;;;;;;28.19;29.05;100329.80;130424;1256;114714;-66
2023/06/06 13:18:58;;;;;;;5.10;3.00;;;;;;;28.21;28.94;100327.78;130431;1257;114743;-64
2023/06/06 13:22:00;;;;;;;5.80;3.50;;;;;;;28.23;29.25;100325.21;130108;1271;115325;-65
2023/06/06 13:25:03;;;;;;;4.50;2.90;;;;;;;28.24;29.00;100322.14;130475;1252;114714;-68
2023/06/06 13:28:05;;;;;;;7.30;3.50;;;;;;;28.10;28.39;100318.80;129923;1260;115364;-66
2023/06/06 13:31:07;;;;;;;9.80;4.00;;;;;;;27.99;28.77;100316.56;130156;1253;114788;-65
2023/06/06 13:34:13;;;;;;;6.10;3.40;;;;;;;27.98;28.84;100313.63;130209;1253;114668;-66
2023/06/06 13:37:15;;;;;;;7.80;3.00;;;;;;;27.98;29.12;100311.89;129942;1277;116507;-66
2023/06/06 13:40:18;;;;;;;4.80;2.90;;;;;;;27.96;28.99;100313.55;130200;1258;115154;-68
2023/06/06 13:43:20;;;;;;;4.90;3.10;;;;;;;27.85;28.62;100308.49;130243;1257;114770;-66
2023/06/06 13:46:23;;;;;;;3.70;3.00;;;;;;;27.75;29.13;100306.27;130290;1277;114731;-67
2023/06/06 13:49:25;;;;;;;4.90;3.10;;;;;;;27.76;29.31;100296.92;130040;1254;115052;-67